createdAt,value
2019-02-25T00:00:36.795Z,101601.30
2019-02-25T00:03:06.077Z,101588.58
2019-02-25T00:05:35.074Z,101585.37
2019-02-25T00:08:04.277Z,101584.70
2019-02-25T00:10:33.554Z,101592.52
2019-02-25T00:13:02.713Z,101595.92
2019-02-25T00:15:31.954Z,101590.23
2019-02-25T00:18:01.115Z,101581.89
2019-02-25T00:20:30.314Z,101581.89
2019-02-25T00:22:59.273Z,101577.89
2019-02-25T00:25:28.440Z,101564.91
2019-02-25T00:27:57.633Z,101566.05
2019-02-25T00:30:26.954Z,101568.18
2019-02-25T00:32:56.153Z,101573.17
2019-02-25T00:35:25.354Z,101569.16
2019-02-25T00:37:54.637Z,101575.66
2019-02-25T00:40:23.768Z,101575.93
2019-02-25T00:42:52.793Z,101568.47
2019-02-25T00:45:21.914Z,101564.61
2019-02-25T00:47:50.916Z,101564.00
2019-02-25T00:50:23.812Z,101565.76
2019-02-25T00:52:52.875Z,101567.41
2019-02-25T00:55:21.873Z,101570.84
2019-02-25T00:57:50.954Z,101566.85
2019-02-25T01:00:24.233Z,101567.65
2019-02-25T01:02:53.435Z,101566.47
2019-02-25T01:05:22.594Z,101563.06
2019-02-25T01:07:51.794Z,101568.95
2019-02-25T01:10:21.593Z,101572.16
2019-02-25T01:12:50.794Z,101571.67
2019-02-25T01:15:19.995Z,101575.34
2019-02-25T01:17:49.234Z,101575.13
2019-02-25T01:20:19.035Z,101574.36
2019-02-25T01:22:48.234Z,101565.67
2019-02-25T01:25:18.756Z,101570.53
2019-02-25T01:27:47.904Z,101581.17
2019-02-25T01:30:19.514Z,101581.17
2019-02-25T01:32:48.674Z,101578.59
2019-02-25T01:35:17.994Z,101576.31
2019-02-25T01:37:47.153Z,101572.22
2019-02-25T01:40:16.557Z,101564.73
2019-02-25T01:42:45.674Z,101561.95
2019-02-25T01:45:16.975Z,101556.30
2019-02-25T01:47:46.275Z,101569.19
2019-02-25T01:50:15.433Z,101562.31
2019-02-25T01:52:44.634Z,101565.36
2019-02-25T01:55:16.923Z,101566.63
2019-02-25T01:57:45.995Z,101568.36
2019-02-25T02:00:16.837Z,101553.84
2019-02-25T02:02:45.794Z,101550.44
2019-02-25T02:05:15.120Z,101556.71
2019-02-25T02:07:44.433Z,101562.41
2019-02-25T02:10:18.036Z,101556.30
2019-02-25T02:12:47.115Z,101563.20
2019-02-25T02:15:17.706Z,101556.41
2019-02-25T02:17:46.674Z,101553.98
2019-02-25T02:20:17.245Z,101553.84
2019-02-25T02:22:46.437Z,101549.17
2019-02-25T02:25:15.956Z,101552.75
2019-02-25T02:27:45.154Z,101554.60
2019-02-25T02:30:16.674Z,101548.20
2019-02-25T02:32:45.713Z,101558.28
2019-02-25T02:35:14.914Z,101547.24
2019-02-25T02:37:44.240Z,101547.20
2019-02-25T02:40:14.274Z,101541.70
2019-02-25T02:42:49.040Z,101535.28
2019-02-25T02:45:23.716Z,101534.09
2019-02-25T02:47:58.795Z,101535.26
2019-02-25T02:50:27.925Z,101524.84
2019-02-25T02:52:57.033Z,101533.08
2019-02-25T02:55:26.161Z,101529.44
2019-02-25T02:57:55.266Z,101529.61
2019-02-25T03:00:24.360Z,101529.26
2019-02-25T03:02:53.556Z,101517.21
2019-02-25T03:05:22.714Z,101511.08
2019-02-25T03:07:51.755Z,101516.06
2019-02-25T03:10:20.994Z,101512.77
2019-02-25T03:12:50.118Z,101512.70
2019-02-25T03:15:23.398Z,101516.06
2019-02-25T03:17:52.601Z,101523.14
2019-02-25T03:20:21.794Z,101512.95
2019-02-25T03:22:50.914Z,101510.41
2019-02-25T03:25:20.279Z,101506.31
2019-02-25T03:27:49.435Z,101501.17
2019-02-25T03:30:22.494Z,101503.88
2019-02-25T03:32:52.674Z,101501.83
2019-02-25T03:35:21.955Z,101509.70
2019-02-25T03:37:51.036Z,101506.83
2019-02-25T03:40:22.717Z,101509.59
2019-02-25T03:42:51.766Z,101513.12
2019-02-25T03:45:21.686Z,101515.45
2019-02-25T03:47:50.881Z,101517.15
2019-02-25T03:50:20.114Z,101520.40
2019-02-25T03:52:49.194Z,101522.50
2019-02-25T03:55:21.967Z,101518.17
2019-02-25T03:57:51.401Z,101517.50
2019-02-25T04:00:27.481Z,101516.86
2019-02-25T04:02:56.676Z,101513.71
2019-02-25T04:05:25.768Z,101517.16
2019-02-25T04:07:54.993Z,101510.84
2019-02-25T04:10:24.078Z,101514.27
2019-02-25T04:12:53.273Z,101510.95
2019-02-25T04:15:23.955Z,101511.09
2019-02-25T04:17:54.359Z,101516.16
2019-02-25T04:20:23.518Z,101517.04
2019-02-25T04:22:52.637Z,101512.35
2019-02-25T04:25:21.659Z,101515.83
2019-02-25T04:27:50.874Z,101502.20
2019-02-25T04:30:20.074Z,101506.62
2019-02-25T04:32:49.197Z,101501.63
2019-02-25T04:35:18.251Z,101498.05
2019-02-25T04:37:47.314Z,101497.30
2019-02-25T04:40:16.436Z,101492.72
2019-02-25T04:42:45.514Z,101494.44
2019-02-25T04:45:16.965Z,101489.30
2019-02-25T04:47:46.116Z,101492.48
2019-02-25T04:50:15.197Z,101493.79
2019-02-25T04:52:44.435Z,101487.22
2019-02-25T04:55:14.762Z,101481.16
2019-02-25T04:57:43.833Z,101487.15
2019-02-25T05:00:27.139Z,101483.20
2019-02-25T05:02:56.277Z,101484.89
2019-02-25T05:05:25.475Z,101477.87
2019-02-25T05:07:54.674Z,101474.66
2019-02-25T05:10:23.841Z,101465.19
2019-02-25T05:13:03.634Z,101461.39
2019-02-25T05:15:34.195Z,101462.95
2019-02-25T05:18:03.361Z,101467.88
2019-02-25T05:20:32.595Z,101461.48
2019-02-25T05:23:01.878Z,101470.39
2019-02-25T05:25:31.034Z,101459.86
2019-02-25T05:28:00.274Z,101468.72
2019-02-25T05:30:29.435Z,101468.58
2019-02-25T05:32:58.594Z,101462.19
2019-02-25T05:35:27.514Z,101462.85
2019-02-25T05:37:56.592Z,101456.97
2019-02-25T05:40:25.937Z,101455.42
2019-02-25T05:42:55.035Z,101458.36
2019-02-25T05:45:25.233Z,101464.80
2019-02-25T05:47:54.314Z,101463.41
2019-02-25T05:50:23.511Z,101469.60
2019-02-25T05:52:52.631Z,101468.13
2019-02-25T05:55:21.592Z,101484.77
2019-02-25T05:57:50.688Z,101487.83
2019-02-25T06:00:25.720Z,101487.84
2019-02-25T06:02:54.916Z,101490.68
2019-02-25T06:05:23.995Z,101488.16
2019-02-25T06:07:52.885Z,101486.55
2019-02-25T06:10:21.994Z,101484.30
2019-02-25T06:12:51.154Z,101482.21
2019-02-25T06:15:20.916Z,101475.49
2019-02-25T06:17:50.154Z,101475.49
2019-02-25T06:20:19.354Z,101477.61
2019-02-25T06:22:48.512Z,101474.09
2019-02-25T06:25:18.093Z,101476.49
2019-02-25T06:27:47.274Z,101479.06
2019-02-25T06:30:18.605Z,101488.28
2019-02-25T06:32:47.770Z,101491.00
2019-02-25T06:35:16.900Z,101498.94
2019-02-25T06:37:46.200Z,101487.62
2019-02-25T06:40:17.163Z,101490.12
2019-02-25T06:42:46.353Z,101492.48
2019-02-25T06:45:20.234Z,101477.14
2019-02-25T06:47:49.354Z,101461.86
2019-02-25T06:50:18.354Z,101459.78
2019-02-25T06:52:47.412Z,101452.05
2019-02-25T06:55:17.955Z,101452.88
2019-02-25T06:57:47.158Z,101459.85
2019-02-25T07:00:17.913Z,101456.23
2019-02-25T07:02:47.081Z,101454.36
2019-02-25T07:05:18.194Z,101465.33
2019-02-25T07:07:58.239Z,101464.50
2019-02-25T07:10:40.956Z,101461.19
2019-02-25T07:13:11.754Z,101468.54
2019-02-25T07:15:45.154Z,101462.61
2019-02-25T07:18:18.757Z,101452.30
2019-02-25T07:21:05.475Z,101451.20
2019-02-25T07:23:52.353Z,101449.05
2019-02-25T07:26:27.585Z,101454.09
2019-02-25T07:29:14.625Z,101453.20
2019-02-25T07:32:01.571Z,101455.44
2019-02-25T07:34:38.276Z,101451.47
2019-02-25T07:37:09.277Z,101457.30
2019-02-25T07:39:48.714Z,101457.55
2019-02-25T07:42:34.516Z,101462.66
2019-02-25T07:45:11.595Z,101462.05
2019-02-25T07:47:42.234Z,101461.45
2019-02-25T07:50:22.115Z,101456.42
2019-02-25T07:53:05.000Z,101475.80
2019-02-25T07:55:35.635Z,101473.30
2019-02-25T07:58:18.316Z,101479.11
2019-02-25T08:00:54.314Z,101474.37
2019-02-25T08:03:33.793Z,101469.99
2019-02-25T08:06:04.472Z,101473.47
2019-02-25T08:08:40.976Z,101475.25
2019-02-25T08:11:11.631Z,101484.09
2019-02-25T08:13:42.312Z,101488.53
2019-02-25T08:16:16.071Z,101496.05
2019-02-25T08:18:55.832Z,101501.40
2019-02-25T08:21:32.351Z,101498.84
2019-02-25T08:24:09.232Z,101497.53
2019-02-25T08:26:52.085Z,101496.60
2019-02-25T08:29:22.726Z,101502.78
2019-02-25T08:31:53.323Z,101505.86
2019-02-25T08:34:24.046Z,101506.33
2019-02-25T08:37:06.726Z,101504.63
2019-02-25T08:39:43.245Z,101509.86
2019-02-25T08:42:14.123Z,101505.48
2019-02-25T08:44:47.246Z,101506.80
2019-02-25T08:47:17.905Z,101503.80
2019-02-25T08:49:51.185Z,101509.06
2019-02-25T08:52:20.110Z,101513.48
2019-02-25T08:54:49.129Z,101509.55
2019-02-25T08:57:18.205Z,101512.61
2019-02-25T08:59:47.087Z,101496.39
2019-02-25T09:02:16.310Z,101493.76
2019-02-25T09:04:45.248Z,101496.86
2019-02-25T09:07:14.184Z,101501.25
2019-02-25T09:09:43.106Z,101499.50
2019-02-25T09:12:12.026Z,101501.26
2019-02-25T09:14:41.013Z,101506.50
2019-02-25T09:17:10.085Z,101499.45
2019-02-25T09:19:38.966Z,101505.94
2019-02-25T09:22:07.945Z,101488.20
2019-02-25T09:24:36.985Z,101490.53
2019-02-25T09:27:06.024Z,101495.83
2019-02-25T09:29:35.007Z,101498.70
2019-02-25T09:32:03.945Z,101488.83
2019-02-25T09:34:32.827Z,101492.53
2019-02-25T09:37:01.717Z,101502.81
2019-02-25T09:39:30.684Z,101499.48
2019-02-25T09:41:59.576Z,101509.02
2019-02-25T09:44:28.468Z,101511.30
2019-02-25T09:46:57.393Z,101506.14
2019-02-25T09:49:26.269Z,101503.38
2019-02-25T09:51:55.166Z,101506.86
2019-02-25T09:54:24.193Z,101503.23
2019-02-25T09:56:53.146Z,101503.34
2019-02-25T09:59:22.025Z,101506.48
2019-02-25T10:01:50.925Z,101505.20
2019-02-25T10:04:19.894Z,101507.16
2019-02-25T10:06:48.773Z,101503.05
2019-02-25T10:09:17.677Z,101489.95
2019-02-25T10:11:48.700Z,101489.81
2019-02-25T10:14:17.304Z,101493.97
2019-02-25T10:16:46.326Z,101488.42
2019-02-25T10:19:15.404Z,101485.83
2019-02-25T10:21:44.295Z,101482.91
2019-02-25T10:24:13.295Z,101471.37
2019-02-25T10:26:42.853Z,101468.02
2019-02-25T10:29:11.913Z,101452.47
2019-02-25T10:31:41.704Z,101446.22
2019-02-25T10:34:11.646Z,101441.05
2019-02-25T10:36:40.606Z,101433.87
2019-02-25T10:39:13.042Z,101429.61
2019-02-25T10:41:41.993Z,101416.19
2019-02-25T10:44:10.935Z,101408.05
2019-02-25T10:46:40.835Z,101418.72
2019-02-25T10:49:11.672Z,101410.70
2019-02-25T10:51:42.947Z,101419.31
2019-02-25T10:54:11.653Z,101420.39
2019-02-25T10:56:43.696Z,101422.27
2019-02-25T10:59:12.725Z,101405.74
2019-02-25T11:01:43.303Z,101411.48
2019-02-25T11:04:12.496Z,101402.41
2019-02-25T11:06:41.555Z,101396.48
2019-02-25T11:09:16.364Z,101406.02
2019-02-25T11:11:46.376Z,101388.64
2019-02-25T11:14:15.405Z,101386.97
2019-02-25T11:16:46.023Z,101391.50
2019-02-25T11:19:15.494Z,101392.96
2019-02-25T11:21:44.555Z,101380.61
2019-02-25T11:24:14.472Z,101357.95
2019-02-25T11:26:43.914Z,101356.21
2019-02-25T11:29:13.778Z,101346.70
2019-02-25T11:31:45.222Z,101340.48
2019-02-25T11:34:14.713Z,101338.48
2019-02-25T11:36:43.895Z,101338.25
2019-02-25T11:39:13.807Z,101339.80
2019-02-25T11:41:42.814Z,101330.92
2019-02-25T11:44:11.715Z,101334.09
2019-02-25T11:46:40.976Z,101330.53
2019-02-25T11:49:10.014Z,101322.11
2019-02-25T11:51:39.014Z,101323.89
2019-02-25T11:54:08.014Z,101312.70
2019-02-25T11:56:36.973Z,101312.00
2019-02-25T11:59:06.033Z,101303.70
2019-02-25T12:01:35.029Z,101309.19
2019-02-25T12:04:04.074Z,101298.26
2019-02-25T12:06:32.993Z,101292.62
2019-02-25T12:09:01.986Z,101279.12
2019-02-25T12:11:30.858Z,101278.38
2019-02-25T12:13:59.753Z,101272.36
2019-02-25T12:16:28.853Z,101269.04
2019-02-25T12:18:57.720Z,101271.83
2019-02-25T12:21:26.629Z,101263.02
2019-02-25T12:23:55.614Z,101261.18
2019-02-25T12:26:25.808Z,101255.83
2019-02-25T12:28:54.734Z,101251.69
2019-02-25T12:31:23.855Z,101253.36
2019-02-25T12:33:52.785Z,101259.41
2019-02-25T12:36:21.784Z,101237.41
2019-02-25T12:38:50.746Z,101239.56
2019-02-25T12:41:19.646Z,101234.98
2019-02-25T12:43:48.505Z,101217.52
2019-02-25T12:46:17.434Z,101219.74
2019-02-25T12:48:46.365Z,101210.55
2019-02-25T12:51:15.245Z,101212.41
2019-02-25T12:53:44.166Z,101217.64
2019-02-25T12:56:13.150Z,101201.03
2019-02-25T12:58:42.044Z,101196.20
2019-02-25T13:01:10.965Z,101181.12
2019-02-25T13:03:39.848Z,101171.97
2019-02-25T13:06:08.727Z,101176.98
2019-02-25T13:08:37.665Z,101168.13
2019-02-25T13:11:06.665Z,101166.48
2019-02-25T13:13:35.706Z,101173.91
2019-02-25T13:16:04.609Z,101172.05
2019-02-25T13:18:33.486Z,101162.49
2019-02-25T13:21:02.346Z,101156.61
2019-02-25T13:23:31.305Z,101170.23
2019-02-25T13:26:07.271Z,101156.23
2019-02-25T13:28:33.117Z,101157.49
2019-02-25T13:31:03.267Z,101158.39
2019-02-25T13:33:32.206Z,101160.34
2019-02-25T13:36:01.166Z,101158.74
2019-02-25T13:38:30.188Z,101157.84
2019-02-25T13:40:59.158Z,101158.23
2019-02-25T13:43:28.107Z,101152.48
2019-02-25T13:45:57.125Z,101166.88
2019-02-25T13:48:26.086Z,101153.16
2019-02-25T13:50:55.045Z,101158.13
2019-02-25T13:53:24.094Z,101154.49
2019-02-25T13:55:53.046Z,101147.12
2019-02-25T13:58:22.094Z,101144.75
2019-02-25T14:00:51.207Z,101142.31
2019-02-25T14:03:20.169Z,101141.48
2019-02-25T14:05:49.114Z,101132.97
2019-02-25T14:08:18.126Z,101125.19
2019-02-25T14:10:47.374Z,101122.14
2019-02-25T14:13:16.586Z,101114.02
2019-02-25T14:15:45.666Z,101114.37
2019-02-25T14:18:14.747Z,101116.70
2019-02-25T14:20:44.285Z,101115.70
2019-02-25T14:23:13.394Z,101112.31
2019-02-25T14:25:42.438Z,101113.93
2019-02-25T14:28:11.399Z,101108.53
2019-02-25T14:30:40.486Z,101102.90
2019-02-25T14:33:09.465Z,101108.14
2019-02-25T14:35:38.506Z,101113.38
2019-02-25T14:38:15.916Z,101101.29
2019-02-25T14:40:44.838Z,101104.94
2019-02-25T14:43:15.677Z,101110.10
2019-02-25T14:45:46.613Z,101111.41
2019-02-25T14:48:20.364Z,101109.47
2019-02-25T14:50:46.545Z,101099.99
2019-02-25T14:53:15.731Z,101090.75
2019-02-25T14:55:46.923Z,101095.78
2019-02-25T14:58:17.423Z,101090.77
2019-02-25T15:00:46.235Z,101087.04
2019-02-25T15:03:15.287Z,101088.41
2019-02-25T15:05:44.547Z,101082.43
2019-02-25T15:08:13.545Z,101082.50
2019-02-25T15:10:43.006Z,101078.41
2019-02-25T15:13:12.350Z,101088.11
2019-02-25T15:15:43.464Z,101070.70
2019-02-25T15:18:14.354Z,101081.13
2019-02-25T15:20:43.454Z,101084.08
2019-02-25T15:23:14.920Z,101095.09
2019-02-25T15:25:45.416Z,101094.39
2019-02-25T15:28:15.656Z,101094.48
2019-02-25T15:30:44.627Z,101094.03
2019-02-25T15:33:13.573Z,101110.41
2019-02-25T15:35:43.849Z,101099.44
2019-02-25T15:38:13.026Z,101096.83
2019-02-25T15:40:42.694Z,101103.22
2019-02-25T15:43:17.715Z,101112.52
2019-02-25T15:45:46.887Z,101114.55
2019-02-25T15:48:21.098Z,101110.81
2019-02-25T15:50:57.373Z,101109.50
2019-02-25T15:53:27.208Z,101105.39
2019-02-25T15:55:59.238Z,101101.70
2019-02-25T15:58:27.400Z,101092.39
2019-02-25T16:00:56.726Z,101095.81
2019-02-25T16:03:26.850Z,101093.21
2019-02-25T16:05:59.295Z,101092.44
2019-02-25T16:08:28.656Z,101086.55
2019-02-25T16:10:58.464Z,101082.09
2019-02-25T16:13:28.786Z,101083.42
2019-02-25T16:15:57.949Z,101085.02
2019-02-25T16:18:27.820Z,101085.73
2019-02-25T16:20:57.498Z,101091.65
2019-02-25T16:23:31.817Z,101091.47
2019-02-25T16:25:59.925Z,101093.34
2019-02-25T16:28:31.069Z,101087.22
2019-02-25T16:31:00.106Z,101081.59
2019-02-25T16:33:30.822Z,101089.12
2019-02-25T16:36:01.270Z,101078.08
2019-02-25T16:38:31.866Z,101084.08
2019-02-25T16:41:03.708Z,101088.07
2019-02-25T16:43:32.785Z,101094.61
2019-02-25T16:46:04.295Z,101093.80
2019-02-25T16:48:33.011Z,101090.42
2019-02-25T16:51:02.729Z,101089.24
2019-02-25T16:53:36.980Z,101094.78
2019-02-25T16:56:05.680Z,101095.76
2019-02-25T16:58:36.450Z,101100.05
2019-02-25T17:01:08.047Z,101091.66
2019-02-25T17:03:39.211Z,101085.09
2019-02-25T17:06:09.167Z,101080.77
2019-02-25T17:08:39.035Z,101083.56
2019-02-25T17:11:08.406Z,101081.10
2019-02-25T17:13:39.719Z,101074.41
2019-02-25T17:16:17.926Z,101072.17
2019-02-25T17:18:39.746Z,101073.95
2019-02-25T17:21:09.006Z,101076.15
2019-02-25T17:23:38.782Z,101079.76
2019-02-25T17:26:10.586Z,101081.50
2019-02-25T17:28:39.167Z,101075.45
2019-02-25T17:31:09.027Z,101067.05
2019-02-25T17:33:39.265Z,101072.31
2019-02-25T17:36:09.988Z,101069.33
2019-02-25T17:38:40.691Z,101070.20
2019-02-25T17:41:11.214Z,101078.09
2019-02-25T17:43:43.024Z,101079.52
2019-02-25T17:46:14.045Z,101076.65
2019-02-25T17:48:43.106Z,101080.59
2019-02-25T17:51:16.194Z,101081.00
2019-02-25T17:53:46.091Z,101080.58
2019-02-25T17:56:18.119Z,101086.70
2019-02-25T17:58:47.245Z,101076.70
2019-02-25T18:01:17.377Z,101083.61
2019-02-25T18:03:48.224Z,101080.58
2019-02-25T18:06:17.585Z,101081.53
2019-02-25T18:08:46.825Z,101080.61
2019-02-25T18:11:17.932Z,101081.08
2019-02-25T18:13:48.818Z,101081.48
2019-02-25T18:16:18.972Z,101076.64
2019-02-25T18:18:50.705Z,101074.03
2019-02-25T18:21:19.285Z,101081.56
2019-02-25T18:23:49.370Z,101078.36
2019-02-25T18:26:19.444Z,101078.43
2019-02-25T18:28:50.317Z,101072.77
2019-02-25T18:31:19.577Z,101077.50
2019-02-25T18:33:51.121Z,101081.50
2019-02-25T18:36:21.844Z,101081.97
2019-02-25T18:38:52.785Z,101091.22
2019-02-25T18:41:24.876Z,101100.54
2019-02-25T18:43:54.046Z,101097.05
2019-02-25T18:46:23.817Z,101093.60
2019-02-25T18:48:54.226Z,101092.73
2019-02-25T18:51:24.569Z,101096.28
2019-02-25T18:53:55.462Z,101095.66
2019-02-25T18:56:25.506Z,101095.95
2019-02-25T18:59:07.347Z,101092.60
2019-02-25T19:01:26.837Z,101087.83
2019-02-25T19:03:56.919Z,101078.69
2019-02-25T19:06:29.218Z,101084.82
2019-02-25T19:08:58.351Z,101086.14
2019-02-25T19:11:28.240Z,101082.19
2019-02-25T19:14:01.799Z,101084.39
2019-02-25T19:16:28.604Z,101085.27
2019-02-25T19:18:57.825Z,101079.16
2019-02-25T19:21:27.732Z,101077.80
2019-02-25T19:23:58.007Z,101077.80
2019-02-25T19:26:27.325Z,101076.02
2019-02-25T19:28:58.613Z,101071.19
2019-02-25T19:31:27.586Z,101064.61
2019-02-25T19:34:00.089Z,101066.73
2019-02-25T19:36:29.718Z,101068.05
2019-02-25T19:38:59.129Z,101071.97
2019-02-25T19:41:29.830Z,101071.09
2019-02-25T19:44:01.705Z,101066.69
2019-02-25T19:46:30.325Z,101071.53
2019-02-25T19:49:01.244Z,101067.09
2019-02-25T19:51:30.546Z,101067.02
2019-02-25T19:54:02.683Z,101073.12
2019-02-25T19:56:30.884Z,101054.66
2019-02-25T19:59:00.749Z,101060.33
2019-02-25T20:01:30.993Z,101062.09
2019-02-25T20:04:04.373Z,101050.17
2019-02-25T20:06:31.466Z,101046.20
2019-02-25T20:09:00.745Z,101038.71
2019-02-25T20:11:30.225Z,101041.44
2019-02-25T20:14:01.591Z,101048.03
2019-02-25T20:16:32.416Z,101035.75
2019-02-25T20:19:02.560Z,101025.21
2019-02-25T20:21:32.705Z,101024.17
2019-02-25T20:24:01.895Z,101037.41
2019-02-25T20:26:32.629Z,101027.67
2019-02-25T20:29:04.003Z,101026.83
2019-02-25T20:31:32.963Z,101028.62
2019-02-25T20:34:02.277Z,101031.73
2019-02-25T20:36:32.701Z,101044.97
2019-02-25T20:39:02.082Z,101055.98
2019-02-25T20:41:31.305Z,101040.56
2019-02-25T20:44:01.189Z,101042.76
2019-02-25T20:46:32.745Z,101051.56
2019-02-25T20:49:02.414Z,101043.69
2019-02-25T20:51:33.868Z,101052.94
2019-02-25T20:54:03.226Z,101051.59
2019-02-25T20:56:33.265Z,101064.84
2019-02-25T20:59:05.144Z,101052.20
2019-02-25T21:01:37.158Z,101050.00
2019-02-25T21:04:04.545Z,101052.30
2019-02-25T21:06:35.873Z,101051.42
2019-02-25T21:09:06.665Z,101052.83
2019-02-25T21:11:36.635Z,101059.90
2019-02-25T21:14:13.603Z,101054.63
2019-02-25T21:17:03.003Z,101055.56
2019-02-25T21:19:33.283Z,101063.50
2019-02-25T21:22:04.312Z,101065.30
2019-02-25T21:24:35.311Z,101063.13
2019-02-25T21:27:06.396Z,101071.95
2019-02-25T21:29:38.306Z,101074.14
2019-02-25T21:32:06.244Z,101069.75
2019-02-25T21:34:35.345Z,101077.24
2019-02-25T21:37:04.577Z,101076.83
2019-02-25T21:39:34.497Z,101071.14
2019-02-25T21:42:06.391Z,101075.97
2019-02-25T21:44:35.989Z,101066.36
2019-02-25T21:47:06.336Z,101072.49
2019-02-25T21:49:36.505Z,101071.63
2019-02-25T21:52:08.315Z,101067.68
2019-02-25T21:54:37.426Z,101075.16
2019-02-25T21:57:08.019Z,101067.27
2019-02-25T21:59:38.617Z,101058.98
2019-02-25T22:02:07.605Z,101056.78
2019-02-25T22:04:38.476Z,101054.61
2019-02-25T22:07:07.156Z,101051.55
2019-02-25T22:09:41.188Z,101044.98
2019-02-25T22:12:06.691Z,101053.31
2019-02-25T22:14:35.605Z,101047.61
2019-02-25T22:17:04.446Z,101045.84
2019-02-25T22:19:35.007Z,101040.16
2019-02-25T22:22:04.937Z,101041.05
2019-02-25T22:24:36.290Z,101034.48
2019-02-25T22:27:05.246Z,101029.23
2019-02-25T22:29:36.593Z,101029.66
2019-02-25T22:32:06.395Z,101030.97
2019-02-25T22:34:35.625Z,101031.00
2019-02-25T22:37:04.683Z,101034.92
2019-02-25T22:39:33.565Z,101025.73
2019-02-25T22:42:03.570Z,101025.30
2019-02-25T22:44:33.541Z,101029.23
2019-02-25T22:47:05.155Z,101033.17
2019-02-25T22:49:33.343Z,101022.22
2019-02-25T22:52:02.924Z,101033.17
2019-02-25T22:54:32.874Z,101027.91
2019-02-25T22:57:01.745Z,101037.11
2019-02-25T22:59:30.647Z,101017.84
2019-02-25T23:01:59.543Z,101015.65
2019-02-25T23:04:28.429Z,101019.16
2019-02-25T23:06:57.349Z,101016.53
2019-02-25T23:09:26.369Z,101011.27
2019-02-25T23:11:55.643Z,101007.33
2019-02-25T23:14:24.562Z,100998.55
2019-02-25T23:16:53.584Z,101004.67
2019-02-25T23:19:22.609Z,100999.41
2019-02-25T23:21:51.573Z,100992.42
2019-02-25T23:24:21.772Z,100975.77
2019-02-25T23:26:52.905Z,100985.87
2019-02-25T23:29:22.473Z,100977.97
2019-02-25T23:31:52.003Z,100976.21
2019-02-25T23:34:22.688Z,100965.27
2019-02-25T23:36:53.987Z,100972.70
2019-02-25T23:39:22.264Z,100971.84
2019-02-25T23:41:51.127Z,100982.34
2019-02-25T23:44:22.054Z,100980.59
2019-02-25T23:46:55.394Z,100987.19
2019-02-25T23:49:27.263Z,100983.22
2019-02-25T23:51:52.065Z,100988.50
2019-02-25T23:54:23.059Z,100970.11
2019-02-25T23:56:52.541Z,100957.39
2019-02-25T23:59:24.302Z,100961.80
